sensor_id;sensor_type;location;lat;lon;timestamp;P1;durP1;ratioP1;P2;durP2;ratioP2
9661;SDS011;24982;52.344;12.990;2023-07-13T00:02:15;2.05;;;1.92;;
9661;SDS011;24982;52.344;12.990;2023-07-13T00:05:18;2.08;;;1.98;;
9661;SDS011;24982;52.344;12.990;2023-07-13T00:08:20;3.72;;;2.13;;
9661;SDS011;24982;52.344;12.990;2023-07-13T00:11:23;4.25;;;2.15;;
9661;SDS011;24982;52.344;12.990;2023-07-13T00:14:26;3.47;;;1.80;;
9661;SDS011;24982;52.344;12.990;2023-07-13T00:17:28;4.45;;;2.00;;
9661;SDS011;24982;52.344;12.990;2023-07-13T00:20:32;1.95;;;1.83;;
9661;SDS011;24982;52.344;12.990;2023-07-13T00:23:34;2.58;;;1.90;;
9661;SDS011;24982;52.344;12.990;2023-07-13T00:26:37;2.95;;;2.10;;
9661;SDS011;24982;52.344;12.990;2023-07-13T00:29:39;2.10;;;1.90;;
9661;SDS011;24982;52.344;12.990;2023-07-13T00:32:41;3.10;;;2.20;;
9661;SDS011;24982;52.344;12.990;2023-07-13T00:35:45;4.05;;;2.00;;
9661;SDS011;24982;52.344;12.990;2023-07-13T00:38:48;2.53;;;2.10;;
9661;SDS011;24982;52.344;12.990;2023-07-13T00:41:50;3.55;;;2.15;;
9661;SDS011;24982;52.344;12.990;2023-07-13T00:45:03;2.92;;;2.08;;
9661;SDS011;24982;52.344;12.990;2023-07-13T00:48:06;2.65;;;1.80;;
9661;SDS011;24982;52.344;12.990;2023-07-13T00:51:09;2.17;;;2.00;;
9661;SDS011;24982;52.344;12.990;2023-07-13T00:54:16;3.20;;;2.17;;
9661;SDS011;24982;52.344;12.990;2023-07-13T00:57:19;2.72;;;1.88;;
9661;SDS011;24982;52.344;12.990;2023-07-13T01:00:23;4.10;;;2.20;;
9661;SDS011;24982;52.344;12.990;2023-07-13T01:03:26;2.67;;;2.22;;
9661;SDS011;24982;52.344;12.990;2023-07-13T01:06:30;2.33;;;1.80;;
9661;SDS011;24982;52.344;12.990;2023-07-13T01:09:33;3.53;;;2.10;;
9661;SDS011;24982;52.344;12.990;2023-07-13T01:12:35;2.28;;;2.05;;
9661;SDS011;24982;52.344;12.990;2023-07-13T01:15:38;3.63;;;2.03;;
9661;SDS011;24982;52.344;12.990;2023-07-13T01:18:41;3.28;;;2.30;;
9661;SDS011;24982;52.344;12.990;2023-07-13T01:21:44;2.10;;;2.00;;
9661;SDS011;24982;52.344;12.990;2023-07-13T01:24:51;3.90;;;2.58;;
9661;SDS011;24982;52.344;12.990;2023-07-13T01:27:54;2.95;;;2.25;;
9661;SDS011;24982;52.344;12.990;2023-07-13T01:30:57;2.22;;;2.00;;
9661;SDS011;24982;52.344;12.990;2023-07-13T01:33:59;4.35;;;2.50;;
9661;SDS011;24982;52.344;12.990;2023-07-13T01:37:03;4.50;;;2.55;;
9661;SDS011;24982;52.344;12.990;2023-07-13T01:40:06;2.60;;;2.40;;
9661;SDS011;24982;52.344;12.990;2023-07-13T01:43:09;2.53;;;2.33;;
9661;SDS011;24982;52.344;12.990;2023-07-13T01:46:12;2.65;;;2.45;;
9661;SDS011;24982;52.344;12.990;2023-07-13T01:49:14;4.50;;;2.70;;
9661;SDS011;24982;52.344;12.990;2023-07-13T01:52:18;2.67;;;2.47;;
9661;SDS011;24982;52.344;12.990;2023-07-13T01:55:20;3.17;;;2.50;;
9661;SDS011;24982;52.344;12.990;2023-07-13T01:58:22;2.95;;;2.65;;
9661;SDS011;24982;52.344;12.990;2023-07-13T02:01:25;2.40;;;2.20;;
9661;SDS011;24982;52.344;12.990;2023-07-13T02:04:28;2.67;;;2.47;;
9661;SDS011;24982;52.344;12.990;2023-07-13T02:07:32;3.63;;;2.63;;
9661;SDS011;24982;52.344;12.990;2023-07-13T02:10:34;2.60;;;2.40;;
9661;SDS011;24982;52.344;12.990;2023-07-13T02:13:36;3.30;;;2.60;;
9661;SDS011;24982;52.344;12.990;2023-07-13T02:16:38;4.35;;;2.80;;
9661;SDS011;24982;52.344;12.990;2023-07-13T02:19:40;4.60;;;2.63;;
9661;SDS011;24982;52.344;12.990;2023-07-13T02:22:44;3.58;;;2.58;;
9661;SDS011;24982;52.344;12.990;2023-07-13T02:25:46;3.53;;;2.35;;
9661;SDS011;24982;52.344;12.990;2023-07-13T02:28:49;3.03;;;2.80;;
9661;SDS011;24982;52.344;12.990;2023-07-13T02:31:53;2.70;;;2.50;;
9661;SDS011;24982;52.344;12.990;2023-07-13T02:34:56;3.03;;;2.70;;
9661;SDS011;24982;52.344;12.990;2023-07-13T02:37:59;2.83;;;2.30;;
9661;SDS011;24982;52.344;12.990;2023-07-13T02:41:02;2.65;;;2.45;;
9661;SDS011;24982;52.344;12.990;2023-07-13T02:44:04;2.50;;;2.30;;
9661;SDS011;24982;52.344;12.990;2023-07-13T02:47:08;3.38;;;2.60;;
9661;SDS011;24982;52.344;12.990;2023-07-13T02:50:10;2.80;;;2.70;;
9661;SDS011;24982;52.344;12.990;2023-07-13T02:53:14;2.33;;;2.15;;
9661;SDS011;24982;52.344;12.990;2023-07-13T02:56:17;3.53;;;2.60;;
9661;SDS011;24982;52.344;12.990;2023-07-13T02:59:19;2.90;;;2.45;;
9661;SDS011;24982;52.344;12.990;2023-07-13T03:02:21;3.72;;;2.50;;
9661;SDS011;24982;52.344;12.990;2023-07-13T03:05:24;4.28;;;2.58;;
9661;SDS011;24982;52.344;12.990;2023-07-13T03:08:28;2.78;;;2.58;;
9661;SDS011;24982;52.344;12.990;2023-07-13T03:11:30;2.95;;;2.60;;
9661;SDS011;24982;52.344;12.990;2023-07-13T03:14:53;3.25;;;2.83;;
9661;SDS011;24982;52.344;12.990;2023-07-13T03:17:56;2.83;;;2.58;;
9661;SDS011;24982;52.344;12.990;2023-07-13T03:20:59;4.18;;;2.88;;
9661;SDS011;24982;52.344;12.990;2023-07-13T03:24:04;3.53;;;2.70;;
9661;SDS011;24982;52.344;12.990;2023-07-13T03:27:06;3.90;;;2.78;;
9661;SDS011;24982;52.344;12.990;2023-07-13T03:30:12;2.83;;;2.60;;
9661;SDS011;24982;52.344;12.990;2023-07-13T03:33:18;4.13;;;2.70;;
9661;SDS011;24982;52.344;12.990;2023-07-13T03:36:21;4.57;;;2.75;;
9661;SDS011;24982;52.344;12.990;2023-07-13T03:39:27;4.68;;;2.50;;
9661;SDS011;24982;52.344;12.990;2023-07-13T03:42:31;5.00;;;3.15;;
9661;SDS011;24982;52.344;12.990;2023-07-13T03:45:34;4.03;;;2.95;;
9661;SDS011;24982;52.344;12.990;2023-07-13T03:48:36;4.93;;;3.10;;
9661;SDS011;24982;52.344;12.990;2023-07-13T03:51:40;3.45;;;2.78;;
9661;SDS011;24982;52.344;12.990;2023-07-13T03:54:43;3.83;;;2.60;;
9661;SDS011;24982;52.344;12.990;2023-07-13T03:57:46;4.82;;;3.08;;
9661;SDS011;24982;52.344;12.990;2023-07-13T04:00:49;5.25;;;3.17;;
9661;SDS011;24982;52.344;12.990;2023-07-13T04:03:52;3.88;;;3.05;;
9661;SDS011;24982;52.344;12.990;2023-07-13T04:06:56;4.60;;;3.28;;
9661;SDS011;24982;52.344;12.990;2023-07-13T04:10:02;5.60;;;3.67;;
9661;SDS011;24982;52.344;12.990;2023-07-13T04:13:05;4.00;;;3.45;;
9661;SDS011;24982;52.344;12.990;2023-07-13T04:16:07;4.90;;;3.63;;
9661;SDS011;24982;52.344;12.990;2023-07-13T04:19:10;3.65;;;2.90;;
9661;SDS011;24982;52.344;12.990;2023-07-13T04:22:12;4.18;;;3.22;;
9661;SDS011;24982;52.344;12.990;2023-07-13T04:25:16;3.40;;;3.10;;
9661;SDS011;24982;52.344;12.990;2023-07-13T04:28:18;4.13;;;2.90;;
9661;SDS011;24982;52.344;12.990;2023-07-13T04:31:20;4.28;;;2.65;;
9661;SDS011;24982;52.344;12.990;2023-07-13T04:34:23;4.10;;;2.50;;
9661;SDS011;24982;52.344;12.990;2023-07-13T04:37:25;3.33;;;2.72;;
9661;SDS011;24982;52.344;12.990;2023-07-13T04:40:30;2.95;;;2.75;;
9661;SDS011;24982;52.344;12.990;2023-07-13T04:43:33;3.80;;;2.95;;
9661;SDS011;24982;52.344;12.990;2023-07-13T04:46:35;3.63;;;3.30;;
9661;SDS011;24982;52.344;12.990;2023-07-13T04:49:38;3.67;;;3.10;;
9661;SDS011;24982;52.344;12.990;2023-07-13T04:52:40;3.25;;;3.00;;
9661;SDS011;24982;52.344;12.990;2023-07-13T04:55:44;2.85;;;2.65;;
9661;SDS011;24982;52.344;12.990;2023-07-13T04:58:47;3.53;;;3.20;;
9661;SDS011;24982;52.344;12.990;2023-07-13T05:01:49;5.28;;;3.17;;
9661;SDS011;24982;52.344;12.990;2023-07-13T05:04:51;3.08;;;2.78;;
9661;SDS011;24982;52.344;12.990;2023-07-13T05:07:54;3.47;;;3.17;;
9661;SDS011;24982;52.344;12.990;2023-07-13T05:10:58;3.22;;;2.88;;
9661;SDS011;24982;52.344;12.990;2023-07-13T05:14:01;3.65;;;3.20;;
9661;SDS011;24982;52.344;12.990;2023-07-13T05:17:03;5.20;;;3.45;;
9661;SDS011;24982;52.344;12.990;2023-07-13T05:20:08;4.60;;;3.63;;
9661;SDS011;24982;52.344;12.990;2023-07-13T05:23:10;3.13;;;2.90;;
9661;SDS011;24982;52.344;12.990;2023-07-13T05:26:14;4.13;;;3.00;;
9661;SDS011;24982;52.344;12.990;2023-07-13T05:29:16;4.78;;;3.00;;
9661;SDS011;24982;52.344;12.990;2023-07-13T05:32:18;3.80;;;2.80;;
9661;SDS011;24982;52.344;12.990;2023-07-13T05:35:21;4.68;;;2.70;;
9661;SDS011;24982;52.344;12.990;2023-07-13T05:38:23;4.75;;;3.03;;
9661;SDS011;24982;52.344;12.990;2023-07-13T05:41:26;3.10;;;2.80;;
9661;SDS011;24982;52.344;12.990;2023-07-13T05:44:29;5.05;;;2.72;;
9661;SDS011;24982;52.344;12.990;2023-07-13T05:47:31;5.07;;;2.40;;
9661;SDS011;24982;52.344;12.990;2023-07-13T05:50:33;5.47;;;2.90;;
9661;SDS011;24982;52.344;12.990;2023-07-13T05:53:35;4.00;;;2.50;;
9661;SDS011;24982;52.344;12.990;2023-07-13T05:56:39;4.35;;;2.75;;
9661;SDS011;24982;52.344;12.990;2023-07-13T05:59:41;4.88;;;2.85;;
9661;SDS011;24982;52.344;12.990;2023-07-13T06:02:43;3.15;;;2.70;;
9661;SDS011;24982;52.344;12.990;2023-07-13T06:05:45;3.78;;;2.13;;
9661;SDS011;24982;52.344;12.990;2023-07-13T06:08:48;4.57;;;2.60;;
9661;SDS011;24982;52.344;12.990;2023-07-13T06:11:51;3.53;;;2.42;;
9661;SDS011;24982;52.344;12.990;2023-07-13T06:14:53;2.85;;;2.60;;
9661;SDS011;24982;52.344;12.990;2023-07-13T06:17:55;3.42;;;2.30;;
9661;SDS011;24982;52.344;12.990;2023-07-13T06:20:58;3.63;;;2.40;;
9661;SDS011;24982;52.344;12.990;2023-07-13T06:24:00;3.42;;;2.30;;
9661;SDS011;24982;52.344;12.990;2023-07-13T06:27:04;2.88;;;2.53;;
9661;SDS011;24982;52.344;12.990;2023-07-13T06:30:06;3.85;;;2.45;;
9661;SDS011;24982;52.344;12.990;2023-07-13T06:33:09;3.47;;;2.47;;
9661;SDS011;24982;52.344;12.990;2023-07-13T06:36:11;3.08;;;2.30;;
9661;SDS011;24982;52.344;12.990;2023-07-13T06:39:13;2.83;;;2.40;;
9661;SDS011;24982;52.344;12.990;2023-07-13T06:42:17;3.08;;;2.35;;
9661;SDS011;24982;52.344;12.990;2023-07-13T06:45:19;3.95;;;2.40;;
9661;SDS011;24982;52.344;12.990;2023-07-13T06:48:21;4.20;;;2.03;;
9661;SDS011;24982;52.344;12.990;2023-07-13T06:51:24;2.47;;;2.25;;
9661;SDS011;24982;52.344;12.990;2023-07-13T06:54:26;2.58;;;1.90;;
9661;SDS011;24982;52.344;12.990;2023-07-13T06:57:30;2.45;;;2.00;;
9661;SDS011;24982;52.344;12.990;2023-07-13T07:00:34;2.97;;;2.08;;
9661;SDS011;24982;52.344;12.990;2023-07-13T07:03:36;3.42;;;1.95;;
9661;SDS011;24982;52.344;12.990;2023-07-13T07:06:39;3.25;;;1.90;;
9661;SDS011;24982;52.344;12.990;2023-07-13T07:09:41;2.08;;;1.80;;
9661;SDS011;24982;52.344;12.990;2023-07-13T07:12:45;2.72;;;2.00;;
9661;SDS011;24982;52.344;12.990;2023-07-13T07:15:47;5.32;;;2.00;;
9661;SDS011;24982;52.344;12.990;2023-07-13T07:18:49;2.15;;;1.88;;
9661;SDS011;24982;52.344;12.990;2023-07-13T07:21:51;1.98;;;1.70;;
9661;SDS011;24982;52.344;12.990;2023-07-13T07:24:54;3.15;;;1.83;;
9661;SDS011;24982;52.344;12.990;2023-07-13T07:27:57;2.75;;;1.95;;
9661;SDS011;24982;52.344;12.990;2023-07-13T07:31:00;2.30;;;1.52;;
9661;SDS011;24982;52.344;12.990;2023-07-13T07:34:02;2.40;;;1.85;;
9661;SDS011;24982;52.344;12.990;2023-07-13T07:37:04;4.05;;;1.75;;
9661;SDS011;24982;52.344;12.990;2023-07-13T07:40:07;1.65;;;1.52;;
9661;SDS011;24982;52.344;12.990;2023-07-13T07:43:11;1.98;;;1.80;;
9661;SDS011;24982;52.344;12.990;2023-07-13T07:46:14;3.22;;;1.90;;
9661;SDS011;24982;52.344;12.990;2023-07-13T07:49:16;1.90;;;1.63;;
9661;SDS011;24982;52.344;12.990;2023-07-13T07:52:19;2.20;;;1.80;;
9661;SDS011;24982;52.344;12.990;2023-07-13T07:55:21;2.10;;;1.90;;
9661;SDS011;24982;52.344;12.990;2023-07-13T07:58:24;3.90;;;1.63;;
9661;SDS011;24982;52.344;12.990;2023-07-13T08:01:27;3.20;;;1.85;;
9661;SDS011;24982;52.344;12.990;2023-07-13T08:04:29;3.88;;;1.80;;
9661;SDS011;24982;52.344;12.990;2023-07-13T08:07:31;3.33;;;1.70;;
9661;SDS011;24982;52.344;12.990;2023-07-13T08:10:34;2.80;;;1.98;;
9661;SDS011;24982;52.344;12.990;2023-07-13T08:13:39;4.70;;;1.80;;
9661;SDS011;24982;52.344;12.990;2023-07-13T08:16:41;5.40;;;2.25;;
9661;SDS011;24982;52.344;12.990;2023-07-13T08:19:43;3.60;;;1.63;;
9661;SDS011;24982;52.344;12.990;2023-07-13T08:22:45;2.42;;;1.90;;
9661;SDS011;24982;52.344;12.990;2023-07-13T08:25:50;2.47;;;1.75;;
9661;SDS011;24982;52.344;12.990;2023-07-13T08:28:54;2.72;;;1.67;;
9661;SDS011;24982;52.344;12.990;2023-07-13T08:31:57;2.00;;;1.90;;
9661;SDS011;24982;52.344;12.990;2023-07-13T08:34:59;1.80;;;1.63;;
9661;SDS011;24982;52.344;12.990;2023-07-13T08:38:01;1.95;;;1.60;;
9661;SDS011;24982;52.344;12.990;2023-07-13T08:41:09;2.45;;;2.15;;
9661;SDS011;24982;52.344;12.990;2023-07-13T08:44:16;2.42;;;2.13;;
9661;SDS011;24982;52.344;12.990;2023-07-13T08:47:22;3.42;;;1.63;;
9661;SDS011;24982;52.344;12.990;2023-07-13T08:50:27;4.93;;;2.13;;
9661;SDS011;24982;52.344;12.990;2023-07-13T08:53:33;3.08;;;2.00;;
9661;SDS011;24982;52.344;12.990;2023-07-13T08:56:36;3.25;;;2.00;;
9661;SDS011;24982;52.344;12.990;2023-07-13T08:59:40;3.65;;;2.28;;
9661;SDS011;24982;52.344;12.990;2023-07-13T09:02:44;5.10;;;2.50;;
9661;SDS011;24982;52.344;12.990;2023-07-13T09:05:49;3.83;;;2.30;;
9661;SDS011;24982;52.344;12.990;2023-07-13T09:08:54;3.13;;;2.10;;
9661;SDS011;24982;52.344;12.990;2023-07-13T09:11:59;4.78;;;2.38;;
9661;SDS011;24982;52.344;12.990;2023-07-13T09:15:05;5.25;;;2.35;;
9661;SDS011;24982;52.344;12.990;2023-07-13T09:18:18;3.33;;;2.25;;
9661;SDS011;24982;52.344;12.990;2023-07-13T09:21:22;2.88;;;2.30;;
9661;SDS011;24982;52.344;12.990;2023-07-13T09:24:31;4.97;;;2.78;;
9661;SDS011;24982;52.344;12.990;2023-07-13T09:27:40;3.85;;;2.42;;
9661;SDS011;24982;52.344;12.990;2023-07-13T09:30:46;6.40;;;2.50;;
9661;SDS011;24982;52.344;12.990;2023-07-13T09:33:53;3.63;;;2.33;;
9661;SDS011;24982;52.344;12.990;2023-07-13T09:36:55;4.95;;;2.33;;
9661;SDS011;24982;52.344;12.990;2023-07-13T09:39:58;3.25;;;2.40;;
9661;SDS011;24982;52.344;12.990;2023-07-13T09:43:01;3.40;;;2.30;;
9661;SDS011;24982;52.344;12.990;2023-07-13T09:46:07;4.05;;;2.50;;
9661;SDS011;24982;52.344;12.990;2023-07-13T09:49:23;2.75;;;2.50;;
9661;SDS011;24982;52.344;12.990;2023-07-13T09:52:26;5.13;;;2.45;;
9661;SDS011;24982;52.344;12.990;2023-07-13T09:55:29;2.80;;;2.60;;
9661;SDS011;24982;52.344;12.990;2023-07-13T09:58:34;3.35;;;2.80;;
9661;SDS011;24982;52.344;12.990;2023-07-13T10:01:38;2.58;;;2.38;;
9661;SDS011;24982;52.344;12.990;2023-07-13T10:04:40;2.95;;;2.63;;
9661;SDS011;24982;52.344;12.990;2023-07-13T10:07:43;3.88;;;2.60;;
9661;SDS011;24982;52.344;12.990;2023-07-13T10:10:46;5.10;;;2.60;;
9661;SDS011;24982;52.344;12.990;2023-07-13T10:13:51;2.80;;;2.47;;
9661;SDS011;24982;52.344;12.990;2023-07-13T10:16:56;3.42;;;2.40;;
9661;SDS011;24982;52.344;12.990;2023-07-13T10:20:03;4.78;;;2.50;;
9661;SDS011;24982;52.344;12.990;2023-07-13T10:23:11;6.47;;;2.65;;
9661;SDS011;24982;52.344;12.990;2023-07-13T10:26:18;4.22;;;2.65;;
9661;SDS011;24982;52.344;12.990;2023-07-13T10:29:23;4.70;;;2.83;;
9661;SDS011;24982;52.344;12.990;2023-07-13T10:32:29;4.35;;;2.83;;
9661;SDS011;24982;52.344;12.990;2023-07-13T10:35:31;3.85;;;2.63;;
9661;SDS011;24982;52.344;12.990;2023-07-13T10:38:33;4.65;;;3.08;;
9661;SDS011;24982;52.344;12.990;2023-07-13T10:41:37;3.92;;;2.47;;
9661;SDS011;24982;52.344;12.990;2023-07-13T10:44:40;3.15;;;2.58;;
9661;SDS011;24982;52.344;12.990;2023-07-13T10:47:44;3.10;;;2.80;;
9661;SDS011;24982;52.344;12.990;2023-07-13T10:50:47;3.95;;;2.45;;
9661;SDS011;24982;52.344;12.990;2023-07-13T10:57:13;2.58;;;2.33;;
9661;SDS011;24982;52.344;12.990;2023-07-13T11:00:17;2.70;;;2.00;;
9661;SDS011;24982;52.344;12.990;2023-07-13T11:03:21;2.25;;;2.05;;
9661;SDS011;24982;52.344;12.990;2023-07-13T11:06:31;3.30;;;2.40;;
9661;SDS011;24982;52.344;12.990;2023-07-13T11:09:36;3.35;;;2.20;;
9661;SDS011;24982;52.344;12.990;2023-07-13T11:12:49;3.85;;;2.58;;
9661;SDS011;24982;52.344;12.990;2023-07-13T11:15:51;4.40;;;2.00;;
9661;SDS011;24982;52.344;12.990;2023-07-13T11:19:08;5.07;;;2.22;;
9661;SDS011;24982;52.344;12.990;2023-07-13T11:22:21;4.60;;;2.10;;
9661;SDS011;24982;52.344;12.990;2023-07-13T11:25:25;3.10;;;1.90;;
9661;SDS011;24982;52.344;12.990;2023-07-13T11:28:30;3.30;;;1.70;;
9661;SDS011;24982;52.344;12.990;2023-07-13T11:31:33;2.45;;;1.90;;
9661;SDS011;24982;52.344;12.990;2023-07-13T11:34:38;3.17;;;1.90;;
9661;SDS011;24982;52.344;12.990;2023-07-13T11:37:40;2.85;;;2.00;;
9661;SDS011;24982;52.344;12.990;2023-07-13T11:40:43;2.80;;;1.90;;
9661;SDS011;24982;52.344;12.990;2023-07-13T11:43:46;4.07;;;1.92;;
9661;SDS011;24982;52.344;12.990;2023-07-13T11:46:51;3.75;;;2.20;;
9661;SDS011;24982;52.344;12.990;2023-07-13T11:49:55;3.35;;;1.98;;
9661;SDS011;24982;52.344;12.990;2023-07-13T11:52:58;2.88;;;2.00;;
9661;SDS011;24982;52.344;12.990;2023-07-13T11:56:00;4.25;;;1.77;;
9661;SDS011;24982;52.344;12.990;2023-07-13T11:59:04;3.35;;;1.90;;
9661;SDS011;24982;52.344;12.990;2023-07-13T12:02:08;3.55;;;1.92;;
9661;SDS011;24982;52.344;12.990;2023-07-13T12:05:19;2.17;;;1.80;;
9661;SDS011;24982;52.344;12.990;2023-07-13T12:08:21;2.42;;;1.95;;
9661;SDS011;24982;52.344;12.990;2023-07-13T12:11:23;5.90;;;2.08;;
9661;SDS011;24982;52.344;12.990;2023-07-13T12:14:25;4.40;;;1.50;;
9661;SDS011;24982;52.344;12.990;2023-07-13T12:17:28;2.30;;;1.70;;
9661;SDS011;24982;52.344;12.990;2023-07-13T12:20:33;3.47;;;1.67;;
9661;SDS011;24982;52.344;12.990;2023-07-13T12:23:37;4.35;;;1.77;;
9661;SDS011;24982;52.344;12.990;2023-07-13T12:26:39;2.55;;;1.70;;
9661;SDS011;24982;52.344;12.990;2023-07-13T12:29:48;1.55;;;1.45;;
9661;SDS011;24982;52.344;12.990;2023-07-13T12:32:58;3.28;;;1.70;;
9661;SDS011;24982;52.344;12.990;2023-07-13T12:36:03;2.80;;;1.75;;
9661;SDS011;24982;52.344;12.990;2023-07-13T12:39:16;2.25;;;1.40;;
9661;SDS011;24982;52.344;12.990;2023-07-13T12:42:20;2.47;;;1.55;;
9661;SDS011;24982;52.344;12.990;2023-07-13T12:45:25;1.65;;;1.52;;
9661;SDS011;24982;52.344;12.990;2023-07-13T12:48:28;2.58;;;1.60;;
9661;SDS011;24982;52.344;12.990;2023-07-13T12:51:32;2.17;;;1.63;;
9661;SDS011;24982;52.344;12.990;2023-07-13T12:54:34;3.00;;;1.63;;
9661;SDS011;24982;52.344;12.990;2023-07-13T12:57:41;3.17;;;1.50;;
9661;SDS011;24982;52.344;12.990;2023-07-13T13:00:48;3.08;;;1.40;;
9661;SDS011;24982;52.344;12.990;2023-07-13T13:03:52;2.53;;;1.50;;
9661;SDS011;24982;52.344;12.990;2023-07-13T13:07:03;2.60;;;1.60;;
9661;SDS011;24982;52.344;12.990;2023-07-13T13:10:11;1.63;;;1.50;;
9661;SDS011;24982;52.344;12.990;2023-07-13T13:13:14;4.88;;;1.35;;
9661;SDS011;24982;52.344;12.990;2023-07-13T13:16:17;3.35;;;1.63;;
9661;SDS011;24982;52.344;12.990;2023-07-13T13:19:23;1.92;;;1.50;;
9661;SDS011;24982;52.344;12.990;2023-07-13T13:22:26;1.33;;;1.23;;
9661;SDS011;24982;52.344;12.990;2023-07-13T13:25:29;2.65;;;1.45;;
9661;SDS011;24982;52.344;12.990;2023-07-13T13:28:31;2.90;;;1.90;;
9661;SDS011;24982;52.344;12.990;2023-07-13T13:31:33;2.50;;;1.45;;
9661;SDS011;24982;52.344;12.990;2023-07-13T13:34:36;2.38;;;1.50;;
9661;SDS011;24982;52.344;12.990;2023-07-13T13:37:39;2.20;;;1.40;;
9661;SDS011;24982;52.344;12.990;2023-07-13T13:40:42;1.60;;;1.50;;
9661;SDS011;24982;52.344;12.990;2023-07-13T13:43:46;2.38;;;1.50;;
9661;SDS011;24982;52.344;12.990;2023-07-13T13:46:48;2.33;;;1.50;;
9661;SDS011;24982;52.344;12.990;2023-07-13T13:49:51;1.90;;;1.30;;
9661;SDS011;24982;52.344;12.990;2023-07-13T13:52:55;7.45;;;1.80;;
9661;SDS011;24982;52.344;12.990;2023-07-13T13:55:57;1.58;;;1.48;;
9661;SDS011;24982;52.344;12.990;2023-07-13T13:58:59;1.67;;;1.40;;
9661;SDS011;24982;52.344;12.990;2023-07-13T14:02:02;1.58;;;1.35;;
9661;SDS011;24982;52.344;12.990;2023-07-13T14:05:05;1.50;;;1.30;;
9661;SDS011;24982;52.344;12.990;2023-07-13T14:08:12;1.45;;;1.23;;
9661;SDS011;24982;52.344;12.990;2023-07-13T14:11:16;3.30;;;1.50;;
9661;SDS011;24982;52.344;12.990;2023-07-13T14:14:19;1.90;;;1.30;;
9661;SDS011;24982;52.344;12.990;2023-07-13T14:17:24;3.20;;;1.30;;
9661;SDS011;24982;52.344;12.990;2023-07-13T14:20:27;1.20;;;1.20;;
9661;SDS011;24982;52.344;12.990;2023-07-13T14:23:31;2.35;;;1.15;;
9661;SDS011;24982;52.344;12.990;2023-07-13T14:26:35;1.33;;;1.20;;
9661;SDS011;24982;52.344;12.990;2023-07-13T14:29:38;2.72;;;1.25;;
9661;SDS011;24982;52.344;12.990;2023-07-13T14:32:41;1.40;;;1.30;;
9661;SDS011;24982;52.344;12.990;2023-07-13T14:35:44;1.85;;;1.20;;
9661;SDS011;24982;52.344;12.990;2023-07-13T14:38:48;1.30;;;1.10;;
9661;SDS011;24982;52.344;12.990;2023-07-13T14:41:52;2.72;;;1.20;;
9661;SDS011;24982;52.344;12.990;2023-07-13T14:44:54;1.35;;;1.23;;
9661;SDS011;24982;52.344;12.990;2023-07-13T14:47:56;3.35;;;1.33;;
9661;SDS011;24982;52.344;12.990;2023-07-13T14:50:59;2.78;;;1.40;;
9661;SDS011;24982;52.344;12.990;2023-07-13T14:54:03;2.15;;;1.48;;
9661;SDS011;24982;52.344;12.990;2023-07-13T14:57:08;1.33;;;1.20;;
9661;SDS011;24982;52.344;12.990;2023-07-13T15:00:14;1.50;;;1.30;;
9661;SDS011;24982;52.344;12.990;2023-07-13T15:03:17;1.85;;;1.25;;
9661;SDS011;24982;52.344;12.990;2023-07-13T15:06:21;1.67;;;1.30;;
9661;SDS011;24982;52.344;12.990;2023-07-13T15:09:25;2.67;;;1.58;;
9661;SDS011;24982;52.344;12.990;2023-07-13T15:12:29;2.55;;;1.30;;
9661;SDS011;24982;52.344;12.990;2023-07-13T15:15:32;1.30;;;1.20;;
9661;SDS011;24982;52.344;12.990;2023-07-13T15:18:35;2.03;;;1.17;;
9661;SDS011;24982;52.344;12.990;2023-07-13T15:21:40;1.65;;;1.13;;
9661;SDS011;24982;52.344;12.990;2023-07-13T15:24:43;1.48;;;1.38;;
9661;SDS011;24982;52.344;12.990;2023-07-13T15:27:47;1.30;;;1.20;;
9661;SDS011;24982;52.344;12.990;2023-07-13T15:30:49;2.40;;;2.20;;
9661;SDS011;24982;52.344;12.990;2023-07-13T15:33:52;1.70;;;1.60;;
9661;SDS011;24982;52.344;12.990;2023-07-13T15:36:55;1.55;;;1.30;;
9661;SDS011;24982;52.344;12.990;2023-07-13T15:39:58;4.55;;;1.70;;
9661;SDS011;24982;52.344;12.990;2023-07-13T15:43:01;1.73;;;1.60;;
9661;SDS011;24982;52.344;12.990;2023-07-13T15:46:03;2.38;;;2.20;;
9661;SDS011;24982;52.344;12.990;2023-07-13T15:49:08;1.75;;;1.42;;
9661;SDS011;24982;52.344;12.990;2023-07-13T15:52:14;1.40;;;1.40;;
9661;SDS011;24982;52.344;12.990;2023-07-13T15:55:20;1.75;;;1.60;;
9661;SDS011;24982;52.344;12.990;2023-07-13T15:58:22;2.30;;;1.50;;
9661;SDS011;24982;52.344;12.990;2023-07-13T16:01:25;2.88;;;1.23;;
9661;SDS011;24982;52.344;12.990;2023-07-13T16:04:28;1.70;;;1.48;;
9661;SDS011;24982;52.344;12.990;2023-07-13T16:07:30;2.25;;;1.30;;
9661;SDS011;24982;52.344;12.990;2023-07-13T16:10:36;1.80;;;1.40;;
9661;SDS011;24982;52.344;12.990;2023-07-13T16:13:40;2.55;;;1.52;;
9661;SDS011;24982;52.344;12.990;2023-07-13T16:16:45;1.92;;;1.52;;
9661;SDS011;24982;52.344;12.990;2023-07-13T16:19:48;2.85;;;1.48;;
9661;SDS011;24982;52.344;12.990;2023-07-13T16:22:52;1.85;;;1.33;;
9661;SDS011;24982;52.344;12.990;2023-07-13T16:25:56;3.53;;;1.40;;
9661;SDS011;24982;52.344;12.990;2023-07-13T16:28:58;2.30;;;1.80;;
9661;SDS011;24982;52.344;12.990;2023-07-13T16:32:02;2.20;;;1.50;;
9661;SDS011;24982;52.344;12.990;2023-07-13T16:35:05;2.55;;;1.50;;
9661;SDS011;24982;52.344;12.990;2023-07-13T16:38:15;1.63;;;1.50;;
9661;SDS011;24982;52.344;12.990;2023-07-13T16:41:19;2.58;;;1.30;;
9661;SDS011;24982;52.344;12.990;2023-07-13T16:44:21;3.63;;;1.60;;
9661;SDS011;24982;52.344;12.990;2023-07-13T16:47:24;1.90;;;1.58;;
9661;SDS011;24982;52.344;12.990;2023-07-13T16:50:29;6.78;;;1.55;;
9661;SDS011;24982;52.344;12.990;2023-07-13T16:53:31;1.75;;;1.60;;
9661;SDS011;24982;52.344;12.990;2023-07-13T16:56:35;4.25;;;2.70;;
9661;SDS011;24982;52.344;12.990;2023-07-13T16:59:37;11.90;;;3.60;;
9661;SDS011;24982;52.344;12.990;2023-07-13T17:02:40;8.32;;;2.42;;
9661;SDS011;24982;52.344;12.990;2023-07-13T17:05:42;8.75;;;2.60;;
9661;SDS011;24982;52.344;12.990;2023-07-13T17:08:45;8.75;;;2.55;;
9661;SDS011;24982;52.344;12.990;2023-07-13T17:11:49;4.75;;;2.03;;
9661;SDS011;24982;52.344;12.990;2023-07-13T17:14:52;3.85;;;2.15;;
9661;SDS011;24982;52.344;12.990;2023-07-13T17:17:54;9.60;;;6.03;;
9661;SDS011;24982;52.344;12.990;2023-07-13T17:21:03;6.97;;;5.97;;
9661;SDS011;24982;52.344;12.990;2023-07-13T17:24:09;11.35;;;10.27;;
9661;SDS011;24982;52.344;12.990;2023-07-13T17:27:17;7.22;;;3.22;;
9661;SDS011;24982;52.344;12.990;2023-07-13T17:30:20;3.38;;;2.08;;
9661;SDS011;24982;52.344;12.990;2023-07-13T17:33:27;3.28;;;2.10;;
9661;SDS011;24982;52.344;12.990;2023-07-13T17:36:30;2.30;;;2.10;;
9661;SDS011;24982;52.344;12.990;2023-07-13T17:39:33;7.35;;;6.63;;
9661;SDS011;24982;52.344;12.990;2023-07-13T17:42:39;9.25;;;3.72;;
9661;SDS011;24982;52.344;12.990;2023-07-13T17:45:42;7.15;;;6.45;;
9661;SDS011;24982;52.344;12.990;2023-07-13T17:48:46;7.00;;;5.65;;
9661;SDS011;24982;52.344;12.990;2023-07-13T17:51:49;5.10;;;2.30;;
9661;SDS011;24982;52.344;12.990;2023-07-13T17:54:52;3.47;;;1.95;;
9661;SDS011;24982;52.344;12.990;2023-07-13T17:57:55;2.35;;;2.08;;
9661;SDS011;24982;52.344;12.990;2023-07-13T18:00:57;2.42;;;2.05;;
9661;SDS011;24982;52.344;12.990;2023-07-13T18:04:00;3.20;;;2.22;;
9661;SDS011;24982;52.344;12.990;2023-07-13T18:07:06;2.35;;;1.90;;
9661;SDS011;24982;52.344;12.990;2023-07-13T18:10:12;1.85;;;1.75;;
9661;SDS011;24982;52.344;12.990;2023-07-13T18:13:17;3.67;;;1.92;;
9661;SDS011;24982;52.344;12.990;2023-07-13T18:16:21;2.38;;;1.80;;
9661;SDS011;24982;52.344;12.990;2023-07-13T18:19:28;2.13;;;1.67;;
9661;SDS011;24982;52.344;12.990;2023-07-13T18:22:31;3.47;;;1.65;;
9661;SDS011;24982;52.344;12.990;2023-07-13T18:25:33;4.15;;;1.67;;
9661;SDS011;24982;52.344;12.990;2023-07-13T18:28:37;2.13;;;1.80;;
9661;SDS011;24982;52.344;12.990;2023-07-13T18:31:40;1.98;;;1.85;;